createdAt,value
2017-12-12T08:06:05.376Z,5
2017-12-12T08:06:37.466Z,5
2017-12-12T08:08:17.246Z,5
2017-12-12T08:10:08.658Z,5
2017-12-12T08:10:41.068Z,5
2017-12-12T08:11:13.368Z,5
2017-12-12T08:11:45.449Z,5
2017-12-12T08:12:17.530Z,5
2017-12-12T08:12:49.593Z,5
2017-12-12T08:13:21.663Z,5
2017-12-12T08:13:53.737Z,5
2017-12-12T08:15:45.452Z,5
2017-12-12T08:16:17.553Z,5
2017-12-12T08:18:09.008Z,5
2017-12-12T08:18:41.125Z,5
2017-12-12T08:19:13.209Z,5
2017-12-12T08:19:45.272Z,5
2017-12-12T08:20:17.312Z,5
2017-12-12T08:20:49.414Z,5
2017-12-12T08:21:21.505Z,5
2017-12-12T08:21:53.591Z,5
2017-12-12T08:23:46.186Z,5
2017-12-12T08:24:18.298Z,5
2017-12-12T08:24:50.383Z,5
2017-12-12T08:26:41.955Z,5
2017-12-12T08:27:14.050Z,5
2017-12-12T08:27:46.213Z,5
2017-12-12T08:28:18.273Z,5
2017-12-12T08:28:50.359Z,5
2017-12-12T08:29:22.455Z,5
2017-12-12T08:29:54.533Z,5
2017-12-12T08:30:26.605Z,5
2017-12-12T08:32:18.101Z,5
2017-12-12T08:34:09.477Z,10
2017-12-12T08:34:41.585Z,10
2017-12-12T08:35:13.672Z,10
2017-12-12T08:37:05.057Z,10
2017-12-12T08:37:37.123Z,10
2017-12-12T08:38:09.205Z,10
2017-12-12T08:38:41.299Z,10
2017-12-12T08:39:13.358Z,10
2017-12-12T08:39:45.454Z,10
2017-12-12T08:40:17.553Z,10
2017-12-12T08:42:09.179Z,15
2017-12-12T08:42:41.277Z,15
2017-12-12T08:43:14.072Z,10
2017-12-12T08:43:46.119Z,10
2017-12-12T08:44:18.175Z,10
2017-12-12T08:44:50.267Z,10
2017-12-12T08:45:22.894Z,10
2017-12-12T08:45:54.930Z,10
2017-12-12T08:46:27.012Z,10
2017-12-12T08:46:59.081Z,10
2017-12-12T08:47:31.141Z,10
2017-12-12T08:48:03.215Z,10
2017-12-12T08:48:35.276Z,10
2017-12-12T08:49:07.323Z,10
2017-12-12T08:49:39.368Z,10
2017-12-12T08:50:11.427Z,10
2017-12-12T08:50:43.471Z,10
2017-12-12T08:51:15.494Z,10
2017-12-12T08:53:07.185Z,10
2017-12-12T08:53:39.264Z,10
2017-12-12T08:54:11.302Z,10
2017-12-12T08:54:43.384Z,15
2017-12-12T08:55:15.426Z,15
2017-12-12T08:55:47.478Z,15
2017-12-12T08:56:19.531Z,15
2017-12-12T08:58:11.205Z,15
2017-12-12T08:58:43.249Z,15
2017-12-12T08:59:15.312Z,15
2017-12-12T08:59:47.349Z,15
2017-12-12T09:00:19.410Z,15
2017-12-12T09:00:51.413Z,15
2017-12-12T09:01:23.458Z,15
2017-12-12T09:03:14.956Z,15
2017-12-12T09:03:47.039Z,10
2017-12-12T09:04:19.357Z,10
2017-12-12T09:04:51.517Z,10
2017-12-12T09:05:23.593Z,10
2017-12-12T09:07:15.128Z,10
2017-12-12T09:07:47.200Z,15
2017-12-12T09:08:19.260Z,15
2017-12-12T09:08:51.303Z,15
2017-12-12T09:09:23.335Z,15
2017-12-12T09:11:14.799Z,15
2017-12-12T09:11:46.882Z,10
2017-12-12T09:12:18.944Z,10
2017-12-12T09:14:10.493Z,5
2017-12-12T09:14:42.567Z,5
2017-12-12T09:15:14.617Z,5
2017-12-12T09:17:06.313Z,10
2017-12-12T09:17:38.563Z,10
2017-12-12T09:18:10.713Z,10
2017-12-12T09:18:42.752Z,10
2017-12-12T09:19:14.795Z,10
2017-12-12T09:21:06.200Z,10
2017-12-12T09:21:38.257Z,10
2017-12-12T09:22:10.280Z,10
2017-12-12T09:22:42.313Z,10
2017-12-12T09:23:14.367Z,10
2017-12-12T09:23:46.402Z,10
2017-12-12T09:24:18.448Z,5
2017-12-12T09:24:50.490Z,10
2017-12-12T09:25:22.540Z,10
2017-12-12T09:25:54.592Z,10
2017-12-12T09:26:26.628Z,10
2017-12-12T09:26:58.658Z,5
2017-12-12T09:27:30.692Z,5
2017-12-12T09:28:02.759Z,10
2017-12-12T09:29:54.314Z,10
2017-12-12T09:31:45.815Z,10
2017-12-12T09:32:17.895Z,10
2017-12-12T09:32:49.962Z,10
2017-12-12T09:33:22.052Z,10
2017-12-12T09:33:54.100Z,10
2017-12-12T09:34:26.183Z,10
2017-12-12T09:34:58.233Z,10
2017-12-12T09:35:30.292Z,10
2017-12-12T09:36:02.336Z,10
2017-12-12T09:36:34.397Z,10
2017-12-12T09:37:06.469Z,10
2017-12-12T09:38:58.125Z,15
2017-12-12T09:39:30.152Z,15
2017-12-12T09:40:02.201Z,15
2017-12-12T09:40:34.268Z,15
2017-12-12T09:41:06.303Z,15
2017-12-12T09:41:38.373Z,15
2017-12-12T09:42:10.467Z,15
2017-12-12T09:42:42.539Z,15
2017-12-12T09:43:14.564Z,15
2017-12-12T09:45:05.825Z,20
2017-12-12T09:45:37.892Z,20
2017-12-12T09:46:09.987Z,20
2017-12-12T09:46:41.806Z,20
2017-12-12T09:47:13.853Z,20
2017-12-12T09:47:45.914Z,20
2017-12-12T09:48:18.005Z,20
2017-12-12T09:48:50.041Z,20
2017-12-12T09:49:22.076Z,20
2017-12-12T09:49:54.146Z,20
2017-12-12T09:50:26.342Z,20
2017-12-12T09:50:58.442Z,20
2017-12-12T09:51:30.510Z,20
2017-12-12T09:52:02.698Z,20
2017-12-12T09:52:34.752Z,20
2017-12-12T09:53:06.810Z,20
2017-12-12T09:53:38.844Z,20
2017-12-12T09:54:10.925Z,20
2017-12-12T09:54:43.013Z,20
2017-12-12T09:55:15.078Z,20
2017-12-12T09:55:47.145Z,20
2017-12-12T09:56:19.217Z,20
2017-12-12T09:56:51.317Z,20
2017-12-12T09:57:23.354Z,20
2017-12-12T09:57:55.441Z,25
2017-12-12T09:58:27.488Z,25
2017-12-12T09:58:59.538Z,25
2017-12-12T09:59:31.572Z,25
2017-12-12T10:00:03.642Z,20
2017-12-12T10:00:35.681Z,20
2017-12-12T10:01:07.751Z,20
2017-12-12T10:01:39.794Z,20
2017-12-12T10:02:11.828Z,20
2017-12-12T10:02:43.906Z,15
2017-12-12T10:03:15.950Z,15
2017-12-12T10:03:48.006Z,20
2017-12-12T10:04:20.063Z,20
2017-12-12T10:06:11.595Z,15
2017-12-12T10:06:43.692Z,15
2017-12-12T10:07:15.752Z,15
2017-12-12T10:09:07.490Z,10
2017-12-12T10:09:39.542Z,10
2017-12-12T10:10:11.602Z,15
2017-12-12T10:10:43.662Z,15
2017-12-12T10:11:18.222Z,15
2017-12-12T10:11:50.664Z,15
2017-12-12T10:12:22.778Z,20
2017-12-12T10:12:54.842Z,20
2017-12-12T10:13:27.444Z,20
2017-12-12T10:15:18.728Z,20
2017-12-12T10:15:50.763Z,20
2017-12-12T10:16:22.822Z,20
2017-12-12T10:16:54.871Z,20
2017-12-12T10:17:26.927Z,20
2017-12-12T10:17:59.006Z,20
2017-12-12T10:18:31.088Z,20
2017-12-12T10:19:03.783Z,20
2017-12-12T10:19:35.921Z,20
2017-12-12T10:21:27.420Z,25
2017-12-12T10:21:59.509Z,25
2017-12-12T10:22:34.231Z,25
2017-12-12T10:23:06.275Z,25
2017-12-12T10:23:38.297Z,25
2017-12-12T10:26:50.342Z,30
2017-12-12T10:27:22.367Z,25
2017-12-12T10:27:54.435Z,25
2017-12-12T10:28:26.467Z,25
2017-12-12T10:28:58.538Z,25
2017-12-12T10:29:30.623Z,25
2017-12-12T10:30:02.670Z,25
2017-12-12T10:30:36.880Z,20
2017-12-12T10:31:08.896Z,20
2017-12-12T10:31:40.979Z,20
2017-12-12T10:32:13.072Z,20
2017-12-12T10:32:45.151Z,20
2017-12-12T10:33:17.208Z,15
2017-12-12T10:33:49.254Z,15
2017-12-12T10:34:21.297Z,15
2017-12-12T10:34:53.354Z,15
2017-12-12T10:35:25.407Z,15
2017-12-12T10:35:57.454Z,15
2017-12-12T10:36:29.521Z,15
2017-12-12T10:37:01.584Z,15
2017-12-12T10:37:33.667Z,15
2017-12-12T10:38:05.738Z,15
2017-12-12T10:38:37.804Z,15
2017-12-12T10:39:09.898Z,15
2017-12-12T10:39:41.950Z,15
2017-12-12T10:40:13.980Z,15
2017-12-12T10:40:46.035Z,15
2017-12-12T10:41:18.095Z,15
2017-12-12T10:41:50.150Z,10
2017-12-12T10:42:22.225Z,10
2017-12-12T10:42:54.296Z,15
2017-12-12T10:43:26.370Z,15
2017-12-12T10:43:58.430Z,15
2017-12-12T10:45:49.854Z,15
2017-12-12T10:47:41.547Z,20
2017-12-12T10:48:13.641Z,20
2017-12-12T10:50:05.276Z,25
2017-12-12T10:50:37.360Z,25
2017-12-12T10:51:09.426Z,25
2017-12-12T10:51:41.492Z,20
2017-12-12T10:52:13.648Z,20
2017-12-12T10:52:45.752Z,20
2017-12-12T10:54:37.108Z,15
2017-12-12T10:55:08.886Z,15
2017-12-12T10:57:00.190Z,20
2017-12-12T10:57:32.291Z,20
2017-12-12T10:58:04.333Z,25
2017-12-12T10:58:36.441Z,25
2017-12-12T10:59:08.602Z,25
2017-12-12T10:59:40.671Z,30
2017-12-12T11:00:12.803Z,30
2017-12-12T11:00:44.870Z,25
2017-12-12T11:01:16.936Z,25
2017-12-12T11:01:49.036Z,25
2017-12-12T11:02:21.143Z,25
2017-12-12T11:04:12.863Z,25
2017-12-12T11:04:44.927Z,20
2017-12-12T11:05:17.555Z,20
2017-12-12T11:05:49.743Z,20
2017-12-12T11:06:21.741Z,20
2017-12-12T11:06:53.962Z,20
2017-12-12T11:07:25.839Z,20
2017-12-12T11:07:57.908Z,20
2017-12-12T11:08:30.072Z,20
2017-12-12T11:09:02.221Z,20
2017-12-12T11:10:53.727Z,20
2017-12-12T11:11:25.787Z,20
2017-12-12T11:11:57.867Z,20
2017-12-12T11:12:29.932Z,20
2017-12-12T11:13:01.950Z,20
2017-12-12T11:13:34.028Z,20
2017-12-12T11:14:06.080Z,20
2017-12-12T11:14:38.129Z,20
2017-12-12T11:15:10.183Z,25
2017-12-12T11:15:42.224Z,30
2017-12-12T11:16:14.249Z,30
2017-12-12T11:16:46.304Z,30
2017-12-12T11:17:18.356Z,25
2017-12-12T11:17:50.392Z,25
2017-12-12T11:18:22.448Z,25
2017-12-12T11:20:13.887Z,25
2017-12-12T11:20:45.930Z,25
2017-12-12T11:21:18.241Z,25
2017-12-12T11:21:50.320Z,30
2017-12-12T11:23:41.770Z,25
2017-12-12T11:24:13.684Z,25
2017-12-12T11:24:45.505Z,25
2017-12-12T11:25:17.676Z,25
2017-12-12T11:25:49.747Z,25
2017-12-12T11:26:21.796Z,25
2017-12-12T11:28:13.505Z,25
2017-12-12T11:28:45.617Z,25
2017-12-12T11:29:17.726Z,25
2017-12-12T11:29:49.830Z,25
2017-12-12T11:30:21.648Z,20
2017-12-12T11:30:53.674Z,20
2017-12-12T11:31:25.544Z,20
2017-12-12T11:31:58.143Z,20
2017-12-12T11:32:30.221Z,15
2017-12-12T11:33:02.272Z,15
2017-12-12T11:33:34.318Z,15
2017-12-12T11:34:06.372Z,15
2017-12-12T11:34:38.461Z,15
2017-12-12T11:35:10.551Z,15
2017-12-12T11:37:02.062Z,20
2017-12-12T11:37:34.112Z,15
2017-12-12T11:38:06.181Z,15
2017-12-12T11:38:38.230Z,20
2017-12-12T11:39:10.285Z,20
2017-12-12T11:39:42.369Z,20
2017-12-12T11:40:14.441Z,20
2017-12-12T11:40:46.496Z,20
2017-12-12T11:41:18.538Z,20
2017-12-12T11:41:50.565Z,15
2017-12-12T11:42:22.610Z,15
2017-12-12T11:42:54.679Z,20
2017-12-12T11:43:26.747Z,20
2017-12-12T11:43:58.796Z,15
2017-12-12T11:44:30.859Z,15
2017-12-12T11:45:02.968Z,15
2017-12-12T11:45:35.040Z,15
2017-12-12T11:47:26.304Z,15
2017-12-12T11:47:58.398Z,15
2017-12-12T11:48:30.436Z,20
2017-12-12T11:49:02.550Z,15
2017-12-12T11:49:34.599Z,15
2017-12-12T11:50:06.664Z,15
2017-12-12T11:50:38.712Z,15
2017-12-12T11:52:30.201Z,15
2017-12-12T11:53:02.248Z,15
2017-12-12T11:53:34.297Z,15
2017-12-12T11:54:06.377Z,20
2017-12-12T11:54:38.490Z,20
2017-12-12T11:55:10.523Z,20
2017-12-12T11:55:42.565Z,20
2017-12-12T11:56:14.652Z,20
2017-12-12T11:56:46.729Z,20
2017-12-12T11:57:18.816Z,20
2017-12-12T11:57:50.881Z,25
2017-12-12T11:58:22.919Z,20
2017-12-12T11:58:55.023Z,20
2017-12-12T11:59:27.077Z,15
2017-12-12T11:59:59.144Z,15
2017-12-12T12:00:31.197Z,15
2017-12-12T12:01:03.281Z,15
2017-12-12T12:01:35.535Z,10
2017-12-12T12:03:29.282Z,10
2017-12-12T12:04:01.321Z,10
2017-12-12T12:04:33.434Z,15
2017-12-12T12:05:05.545Z,15
2017-12-12T12:05:37.607Z,15
2017-12-12T12:06:09.711Z,20
2017-12-12T12:06:41.758Z,20
2017-12-12T12:07:13.846Z,20
2017-12-12T12:07:45.899Z,15
2017-12-12T12:08:17.946Z,15
2017-12-12T12:10:09.565Z,15
2017-12-12T12:10:41.621Z,15
2017-12-12T12:11:13.653Z,15
2017-12-12T12:11:45.745Z,15
2017-12-12T12:12:18.788Z,15
2017-12-12T12:12:50.932Z,15
2017-12-12T12:13:23.022Z,15
2017-12-12T12:15:14.406Z,15
2017-12-12T12:15:46.472Z,15
2017-12-12T12:16:18.539Z,15
2017-12-12T12:16:50.587Z,15
2017-12-12T12:17:22.627Z,15
2017-12-12T12:17:54.640Z,20
2017-12-12T12:18:26.696Z,15
2017-12-12T12:20:18.143Z,20
2017-12-12T12:20:50.210Z,20
2017-12-12T12:21:22.287Z,20
2017-12-12T12:23:13.910Z,15
2017-12-12T12:23:45.953Z,15
2017-12-12T12:24:18.016Z,15
2017-12-12T12:24:50.029Z,15
2017-12-12T12:25:22.089Z,15
2017-12-12T12:27:13.826Z,20
2017-12-12T12:27:45.878Z,20
2017-12-12T12:28:17.956Z,25
2017-12-12T12:28:50.024Z,30
2017-12-12T12:29:22.076Z,30
2017-12-12T12:29:54.145Z,25
2017-12-12T12:30:26.197Z,25
2017-12-12T12:30:58.218Z,20
2017-12-12T12:31:30.274Z,20
2017-12-12T12:32:02.309Z,20
2017-12-12T12:32:34.357Z,20
2017-12-12T12:33:06.434Z,20
2017-12-12T12:34:57.746Z,20
2017-12-12T12:36:49.343Z,25
2017-12-12T12:37:21.525Z,25
2017-12-12T12:37:53.600Z,20
2017-12-12T12:38:25.648Z,20
2017-12-12T12:38:57.679Z,20
2017-12-12T12:40:49.311Z,25
2017-12-12T12:41:21.385Z,25
2017-12-12T12:41:53.434Z,25
2017-12-12T12:42:25.460Z,25
2017-12-12T12:42:57.501Z,25
2017-12-12T12:43:29.531Z,25
2017-12-12T12:44:01.601Z,25
2017-12-12T12:44:33.648Z,25
2017-12-12T12:45:05.719Z,25
2017-12-12T12:45:37.764Z,25
2017-12-12T12:46:09.870Z,20
2017-12-12T12:46:41.972Z,20
2017-12-12T12:47:13.974Z,25
2017-12-12T12:49:05.342Z,20
2017-12-12T12:49:37.409Z,20
2017-12-12T12:50:09.421Z,20
2017-12-12T12:50:41.488Z,25
2017-12-12T12:51:13.540Z,25
2017-12-12T12:51:45.561Z,20
2017-12-12T12:53:37.822Z,25
2017-12-12T12:54:09.871Z,25
2017-12-12T12:54:41.956Z,25
2017-12-12T12:55:14.055Z,25
2017-12-12T12:55:46.108Z,30
2017-12-12T12:56:18.220Z,30
2017-12-12T12:56:50.292Z,30
2017-12-12T12:57:22.355Z,30
2017-12-12T12:57:54.399Z,30
2017-12-12T12:58:26.501Z,30
2017-12-12T12:58:58.529Z,30
2017-12-12T12:59:30.585Z,30
2017-12-12T13:00:02.662Z,30
2017-12-12T13:00:34.677Z,25
2017-12-12T13:01:06.741Z,25
2017-12-12T13:02:58.475Z,25
2017-12-12T13:03:30.562Z,25
2017-12-12T13:04:02.635Z,30
2017-12-12T13:05:54.073Z,30
2017-12-12T13:06:26.129Z,30
2017-12-12T13:06:58.189Z,30
2017-12-12T13:07:30.263Z,30
2017-12-12T13:08:02.335Z,30
2017-12-12T13:08:34.406Z,30
2017-12-12T13:09:06.462Z,30
2017-12-12T13:09:38.500Z,35
2017-12-12T13:10:10.575Z,35
2017-12-12T13:10:42.604Z,35
2017-12-12T13:11:14.685Z,30
2017-12-12T13:11:46.801Z,30
2017-12-12T13:12:18.931Z,30
2017-12-12T13:12:51.010Z,30
2017-12-12T13:13:23.038Z,30
2017-12-12T13:13:55.102Z,25
2017-12-12T13:14:27.159Z,25
2017-12-12T13:14:59.192Z,20
2017-12-12T13:15:31.253Z,20
2017-12-12T13:17:22.635Z,20
2017-12-12T13:17:54.690Z,20
2017-12-12T13:18:26.748Z,15
2017-12-12T13:18:58.796Z,20
2017-12-12T13:19:30.812Z,20
2017-12-12T13:20:02.880Z,20
2017-12-12T13:20:34.909Z,15
2017-12-12T13:21:06.980Z,15
2017-12-12T13:21:39.036Z,15
2017-12-12T13:22:11.070Z,15
2017-12-12T13:22:43.121Z,15
2017-12-12T13:23:15.169Z,20
2017-12-12T13:25:06.758Z,20
2017-12-12T13:26:58.116Z,15
2017-12-12T13:27:30.174Z,15
2017-12-12T13:28:02.239Z,15
2017-12-12T13:28:34.288Z,15
2017-12-12T13:29:06.283Z,15
2017-12-12T13:29:38.377Z,15
2017-12-12T13:30:10.419Z,15
2017-12-12T13:32:01.947Z,15
2017-12-12T13:33:53.309Z,15
2017-12-12T13:34:25.385Z,15
2017-12-12T13:34:57.449Z,15
2017-12-12T13:35:29.548Z,15
2017-12-12T13:36:01.720Z,15
2017-12-12T13:36:33.797Z,10
2017-12-12T13:37:05.878Z,10
2017-12-12T13:37:37.983Z,10
2017-12-12T13:38:10.078Z,10
2017-12-12T13:38:42.160Z,10
2017-12-12T13:39:14.263Z,10
2017-12-12T13:39:46.343Z,10
2017-12-12T13:40:18.427Z,10
2017-12-12T13:40:51.483Z,10
2017-12-12T13:41:23.584Z,10
2017-12-12T13:43:15.380Z,5
2017-12-12T13:45:07.128Z,5
2017-12-12T13:45:39.380Z,5
2017-12-12T13:46:11.588Z,5
2017-12-12T13:46:43.839Z,5
2017-12-12T13:47:15.933Z,5
2017-12-12T13:47:48.046Z,10
2017-12-12T13:48:20.186Z,10
2017-12-12T13:48:52.237Z,10
2017-12-12T13:49:24.332Z,10
2017-12-12T13:51:15.758Z,10
2017-12-12T13:51:48.083Z,5
2017-12-12T13:52:20.178Z,5
2017-12-12T13:54:11.962Z,10
2017-12-12T13:56:03.632Z,10
2017-12-12T13:56:35.862Z,5
2017-12-12T13:58:27.384Z,5
2017-12-12T13:58:59.486Z,5
2017-12-12T13:59:31.584Z,5
2017-12-12T14:00:03.678Z,5
2017-12-12T14:01:55.399Z,5
2017-12-12T14:02:27.524Z,5
2017-12-12T14:02:59.596Z,5
2017-12-12T14:03:31.722Z,5
2017-12-12T14:04:03.840Z,5
2017-12-12T14:04:36.009Z,5
2017-12-12T14:05:08.128Z,5
2017-12-12T14:05:40.227Z,5
2017-12-12T14:06:12.345Z,5
2017-12-12T14:06:44.474Z,5
2017-12-12T14:07:19.299Z,5
2017-12-12T14:07:54.011Z,5
2017-12-12T14:08:26.099Z,5
2017-12-12T14:08:59.190Z,5
2017-12-12T14:09:31.290Z,5
2017-12-12T14:10:03.453Z,5
2017-12-12T14:10:35.562Z,5
2017-12-12T14:11:07.654Z,5
2017-12-12T14:12:59.598Z,5
2017-12-12T14:13:37.497Z,5
2017-12-12T14:14:09.913Z,5
2017-12-12T14:14:42.018Z,5
2017-12-12T14:15:14.082Z,5
2017-12-12T14:15:46.303Z,5
2017-12-12T14:16:18.462Z,5
2017-12-12T14:16:50.539Z,5
2017-12-12T14:17:22.654Z,5
2017-12-12T14:17:54.745Z,5
2017-12-12T14:18:26.858Z,5
2017-12-12T14:18:58.961Z,5
2017-12-12T14:19:31.054Z,5
2017-12-12T14:20:03.387Z,5
2017-12-12T14:20:35.535Z,5
2017-12-12T14:21:07.631Z,5
2017-12-12T14:21:39.699Z,5
2017-12-12T14:22:11.826Z,5
2017-12-12T14:22:43.955Z,5
2017-12-12T14:23:16.042Z,5
2017-12-12T14:23:48.089Z,5
2017-12-12T14:24:20.179Z,5
2017-12-12T14:24:52.234Z,5
2017-12-12T14:25:24.302Z,5
2017-12-12T14:25:56.379Z,5
2017-12-12T14:27:48.267Z,5
2017-12-12T14:28:20.390Z,5
2017-12-12T14:28:52.503Z,5
2017-12-12T14:29:24.575Z,5
2017-12-12T14:29:56.665Z,5
2017-12-12T14:30:28.747Z,5
2017-12-12T14:31:00.846Z,5
2017-12-12T14:31:32.949Z,5
2017-12-12T14:32:05.028Z,5
2017-12-12T14:32:37.091Z,5
2017-12-12T14:33:09.213Z,5
2017-12-12T14:33:41.299Z,5
2017-12-12T14:34:13.770Z,5
2017-12-12T14:34:46.762Z,0
2017-12-12T14:35:18.919Z,0
2017-12-12T14:37:10.447Z,5
2017-12-12T14:37:42.544Z,5
2017-12-12T14:38:14.633Z,0
2017-12-12T14:38:46.720Z,5
2017-12-12T14:39:18.831Z,0
2017-12-12T14:39:50.910Z,5
2017-12-12T14:40:22.998Z,5
2017-12-12T14:40:56.646Z,5
2017-12-12T14:41:32.426Z,0
2017-12-12T14:42:04.678Z,0
2017-12-12T14:43:56.158Z,0
2017-12-12T14:45:47.702Z,5
2017-12-12T14:46:19.803Z,0
2017-12-12T14:48:11.414Z,5
2017-12-12T14:48:43.457Z,5
2017-12-12T14:49:15.563Z,5
2017-12-12T14:49:47.682Z,5
2017-12-12T14:50:19.778Z,5
2017-12-12T14:50:51.848Z,5
2017-12-12T14:51:23.920Z,5
2017-12-12T14:51:56.035Z,5
2017-12-12T14:52:28.119Z,0
2017-12-12T14:53:00.236Z,0
2017-12-12T14:53:32.338Z,0
2017-12-12T14:55:23.837Z,0
2017-12-12T14:55:55.920Z,0
2017-12-12T14:56:28.041Z,0
2017-12-12T14:58:19.408Z,0
2017-12-12T14:58:51.492Z,0
2017-12-12T15:00:42.890Z,0
2017-12-12T15:02:34.322Z,0
2017-12-12T15:03:06.387Z,0
2017-12-12T15:03:38.480Z,0
2017-12-12T15:04:10.569Z,0
2017-12-12T15:04:42.660Z,0
2017-12-12T15:05:14.769Z,0
2017-12-12T15:05:46.848Z,0
2017-12-12T15:06:18.951Z,0
2017-12-12T15:08:10.340Z,0
2017-12-12T15:08:42.429Z,0
2017-12-12T15:09:14.478Z,0
2017-12-12T15:09:46.536Z,0
2017-12-12T15:11:38.261Z,0
2017-12-12T15:13:29.832Z,0
2017-12-12T15:14:01.925Z,0
2017-12-12T15:14:33.997Z,0
2017-12-12T15:15:06.058Z,0
2017-12-12T15:15:38.174Z,0
2017-12-12T15:16:10.257Z,0
2017-12-12T15:16:42.339Z,0
2017-12-12T15:17:14.434Z,0
2017-12-12T15:17:46.534Z,0
2017-12-12T15:18:18.649Z,0
2017-12-12T15:18:50.719Z,0
2017-12-12T15:19:22.765Z,0
2017-12-12T15:21:14.421Z,0
2017-12-12T15:21:46.523Z,0
2017-12-12T15:22:18.604Z,0
2017-12-12T15:22:50.678Z,0
2017-12-12T15:23:22.749Z,0
2017-12-12T15:23:54.850Z,0
2017-12-12T15:25:46.153Z,0
2017-12-12T15:26:18.147Z,0
2017-12-12T15:26:50.994Z,0
2017-12-12T15:27:23.122Z,0
2017-12-12T15:27:55.152Z,0
2017-12-12T15:28:27.197Z,0
2017-12-12T15:28:59.173Z,0
2017-12-12T15:29:31.317Z,0
2017-12-12T15:30:03.358Z,0
2017-12-12T15:30:35.389Z,0
2017-12-12T15:31:07.502Z,0
2017-12-12T15:31:39.481Z,0
2017-12-12T15:32:11.460Z,0
2017-12-12T15:32:43.470Z,0
2017-12-12T15:33:15.451Z,0
2017-12-12T15:33:47.483Z,0
2017-12-12T15:34:19.468Z,0
2017-12-12T15:34:51.502Z,0
2017-12-12T15:35:23.492Z,0
2017-12-12T15:35:55.537Z,0
2017-12-12T15:36:27.585Z,0
2017-12-12T15:36:59.572Z,0
2017-12-12T15:37:31.601Z,0
2017-12-12T15:38:03.573Z,0
2017-12-12T15:38:35.579Z,0
2017-12-12T15:39:07.577Z,0
2017-12-12T15:39:39.594Z,0
2017-12-12T15:40:11.550Z,0
2017-12-12T15:40:43.577Z,0
2017-12-12T15:41:15.595Z,0
2017-12-12T15:41:47.586Z,0
2017-12-12T15:42:19.568Z,0
2017-12-12T15:42:51.582Z,0
2017-12-12T15:43:23.630Z,0
2017-12-12T15:43:55.590Z,0
2017-12-12T15:44:27.608Z,0
2017-12-12T15:44:59.587Z,0
2017-12-12T15:45:31.556Z,0
2017-12-12T15:46:03.658Z,0
2017-12-12T15:46:36.590Z,0
2017-12-12T15:47:08.617Z,0
2017-12-12T15:47:40.658Z,0
2017-12-12T15:48:12.652Z,0
2017-12-12T15:48:44.688Z,0
2017-12-12T15:49:16.662Z,0
2017-12-12T15:49:48.685Z,0
2017-12-12T15:50:20.655Z,0
2017-12-12T15:50:52.699Z,0
2017-12-12T15:51:24.705Z,0
2017-12-12T15:51:56.878Z,0
2017-12-12T15:52:29.808Z,0
2017-12-12T15:53:01.845Z,0
2017-12-12T15:53:33.849Z,0
2017-12-12T15:54:05.905Z,0
2017-12-12T15:54:37.891Z,0
2017-12-12T15:55:09.842Z,0
2017-12-12T15:55:41.858Z,0
2017-12-12T15:56:13.888Z,0
2017-12-12T15:56:46.717Z,0
2017-12-12T15:57:18.726Z,0
2017-12-12T15:57:50.864Z,0
2017-12-12T15:58:22.849Z,0
2017-12-12T15:58:54.895Z,0
2017-12-12T15:59:26.889Z,0
2017-12-12T15:59:58.878Z,0
2017-12-12T16:00:30.859Z,0
2017-12-12T16:01:02.948Z,0
2017-12-12T16:01:34.940Z,0
2017-12-12T16:02:06.981Z,0
2017-12-12T16:02:38.972Z,0
2017-12-12T16:03:10.971Z,0
2017-12-12T16:03:42.986Z,0
2017-12-12T16:04:15.051Z,0
2017-12-12T16:04:47.091Z,0
2017-12-12T16:05:19.094Z,0
2017-12-12T16:05:51.102Z,0
2017-12-12T16:06:23.085Z,0
2017-12-12T16:06:55.076Z,0
2017-12-12T16:07:27.092Z,0
2017-12-12T16:07:59.064Z,0
2017-12-12T16:08:31.065Z,0
2017-12-12T16:09:03.075Z,0
2017-12-12T16:09:35.082Z,0
2017-12-12T16:10:07.238Z,0
2017-12-12T16:10:39.296Z,0
2017-12-12T16:11:11.388Z,0
2017-12-12T16:11:43.362Z,0
2017-12-12T16:12:15.400Z,0
2017-12-12T16:12:47.402Z,0
2017-12-12T16:13:19.429Z,0
2017-12-12T16:13:51.476Z,0
2017-12-12T16:14:23.506Z,0
2017-12-12T16:14:55.489Z,0
2017-12-12T16:15:28.222Z,0
2017-12-12T16:16:00.220Z,0
2017-12-12T16:16:32.288Z,0
2017-12-12T16:17:04.254Z,0
2017-12-12T16:17:36.234Z,0
2017-12-12T16:18:08.266Z,0
2017-12-12T16:18:40.262Z,0
2017-12-12T16:19:12.248Z,0
2017-12-12T16:19:44.241Z,0
2017-12-12T16:20:16.228Z,0
2017-12-12T16:20:48.264Z,0
2017-12-12T16:21:20.387Z,0
2017-12-12T16:21:52.411Z,0
2017-12-12T16:22:24.458Z,0
2017-12-12T16:22:56.433Z,0
2017-12-12T16:23:28.442Z,0
2017-12-12T16:24:00.419Z,0
2017-12-12T16:24:32.456Z,0
2017-12-12T16:25:04.438Z,0
2017-12-12T16:25:36.440Z,0
2017-12-12T16:26:08.447Z,0
2017-12-12T16:26:40.477Z,0
2017-12-12T16:27:12.524Z,0
2017-12-12T16:27:44.521Z,0
2017-12-12T16:28:16.500Z,0
2017-12-12T16:28:48.528Z,0
2017-12-12T16:29:20.568Z,0
2017-12-12T16:29:52.593Z,0
2017-12-12T16:30:24.635Z,0
2017-12-12T16:30:56.637Z,0
2017-12-12T16:31:28.591Z,0
2017-12-12T16:32:00.558Z,0
2017-12-12T16:32:32.524Z,0
2017-12-12T16:33:04.613Z,0
2017-12-12T16:33:36.604Z,0
2017-12-12T16:34:08.649Z,0
2017-12-12T16:34:40.641Z,0
2017-12-12T16:35:12.733Z,0
2017-12-12T16:35:44.737Z,0
2017-12-12T16:36:16.699Z,0
2017-12-12T16:36:48.699Z,0
2017-12-12T16:37:20.710Z,0
2017-12-12T16:37:52.680Z,0
2017-12-12T16:38:24.867Z,0
2017-12-12T16:38:56.873Z,0
2017-12-12T16:39:28.934Z,0
2017-12-12T16:40:00.931Z,0
2017-12-12T16:40:33.171Z,0
2017-12-12T16:41:05.187Z,0
2017-12-12T16:41:37.229Z,0
2017-12-12T16:42:09.299Z,0
2017-12-12T16:42:41.293Z,0
2017-12-12T16:43:13.401Z,0
2017-12-12T16:43:45.589Z,0
2017-12-12T16:44:17.697Z,0
2017-12-12T16:44:49.726Z,0
2017-12-12T16:45:21.755Z,0
2017-12-12T16:45:53.759Z,0
2017-12-12T16:46:25.732Z,0
2017-12-12T16:46:57.745Z,0
2017-12-12T16:47:29.860Z,0
2017-12-12T16:48:01.830Z,0
2017-12-12T16:48:33.846Z,0
2017-12-12T16:49:05.855Z,0
2017-12-12T16:49:37.835Z,0
2017-12-12T16:50:09.873Z,0
2017-12-12T16:50:41.860Z,0
2017-12-12T16:51:13.862Z,0
2017-12-12T16:51:45.890Z,0
2017-12-12T16:52:17.885Z,0
2017-12-12T16:52:49.921Z,0
2017-12-12T16:53:21.962Z,0
2017-12-12T16:53:54.026Z,0
2017-12-12T16:54:26.038Z,0
2017-12-12T16:54:58.013Z,0
2017-12-12T16:55:30.123Z,0
2017-12-12T16:56:02.113Z,0
2017-12-12T16:56:34.090Z,0
2017-12-12T16:57:06.063Z,0
2017-12-12T16:57:38.067Z,0
2017-12-12T16:58:10.069Z,0
2017-12-12T16:58:42.158Z,0
2017-12-12T16:59:14.118Z,0
2017-12-12T16:59:46.121Z,0
2017-12-12T17:00:18.101Z,0
2017-12-12T17:00:50.054Z,0
2017-12-12T17:01:22.632Z,0
2017-12-12T17:01:54.615Z,0
2017-12-12T17:02:26.727Z,0
2017-12-12T17:02:58.747Z,0
2017-12-12T17:03:30.739Z,0
2017-12-12T17:04:02.729Z,0
2017-12-12T17:04:34.738Z,0
2017-12-12T17:05:06.756Z,0
2017-12-12T17:05:38.754Z,0
2017-12-12T17:06:10.756Z,0
2017-12-12T17:06:42.807Z,0
2017-12-12T17:07:14.793Z,0
2017-12-12T17:07:46.828Z,0
2017-12-12T17:08:18.849Z,0
2017-12-12T17:08:50.869Z,0
2017-12-12T17:09:22.845Z,0
2017-12-12T17:09:54.833Z,0
2017-12-12T17:10:26.837Z,0
2017-12-12T17:10:58.826Z,0
2017-12-12T17:11:30.817Z,0
2017-12-12T17:12:02.809Z,0
2017-12-12T17:12:34.826Z,0
2017-12-12T17:13:06.800Z,0
2017-12-12T17:13:38.840Z,0
2017-12-12T17:14:10.872Z,0
2017-12-12T17:14:42.891Z,0
2017-12-12T17:15:14.919Z,0
2017-12-12T17:15:46.999Z,0
2017-12-12T17:16:19.036Z,0
2017-12-12T17:16:51.026Z,0
2017-12-12T17:17:23.119Z,0
2017-12-12T17:17:55.861Z,0
2017-12-12T17:18:27.865Z,0
2017-12-12T17:18:59.863Z,0
2017-12-12T17:19:31.856Z,0
2017-12-12T17:20:03.845Z,0
2017-12-12T17:20:36.607Z,0
2017-12-12T17:21:08.629Z,0
2017-12-12T17:21:40.730Z,0
2017-12-12T17:22:12.760Z,0
2017-12-12T17:22:45.356Z,0
2017-12-12T17:23:18.266Z,0
2017-12-12T17:23:50.234Z,0
2017-12-12T17:24:22.228Z,0
2017-12-12T17:24:54.231Z,0
2017-12-12T17:25:26.236Z,0
2017-12-12T17:25:58.241Z,0
2017-12-12T17:26:30.291Z,0
2017-12-12T17:27:02.318Z,0
2017-12-12T17:27:34.295Z,0
2017-12-12T17:28:06.336Z,0
2017-12-12T17:28:38.376Z,0
2017-12-12T17:29:10.420Z,0
2017-12-12T17:29:42.494Z,0
2017-12-12T17:30:14.536Z,0
2017-12-12T17:30:46.494Z,0
2017-12-12T17:31:18.528Z,0
2017-12-12T17:31:50.507Z,0
2017-12-12T17:32:22.479Z,0
2017-12-12T17:32:54.469Z,0
2017-12-12T17:33:26.472Z,0
2017-12-12T17:33:58.465Z,0
2017-12-12T17:34:30.442Z,0
2017-12-12T17:35:02.453Z,0
2017-12-12T17:35:34.458Z,0
2017-12-12T17:36:06.507Z,0
2017-12-12T17:36:38.485Z,0
2017-12-12T17:37:10.510Z,0
2017-12-12T17:37:42.513Z,0
2017-12-12T17:38:14.575Z,0
2017-12-12T17:38:46.581Z,0